Terminal Aerodrome Forecast
Issued by NWS

Home | Current Version | Previous Version | Text Only | Print | Product List | Glossary On
Versions: 1 2 3 4 5 6 7 8 9 10 11 12 13 14
000
FTUS43 KOAX 302338
TAFCDR
TAF
KCDR 302338Z 3100/3124 08005KT P6SM SKC
     FM310900 12007KT P6SM SCT010
     FM311400 16010KT P6SM BKN015
     FM311800 17022G28KT P6SM SCT020
     FM312100 17021G28KT P6SM SKC=

USA.gov is the U.S. government's official web portal to all federal, state and local government web resources and services.